sensor_id;sensor_type;location;lat;lon;timestamp;pressure;altitude;pressure_sealevel;temperature;humidity
45939;BME280;31650;48.818;9.116;2023-07-29T00:09:44;97650.84;;;16.27;100.00
45939;BME280;31650;48.818;9.116;2023-07-29T00:24:45;97652.28;;;16.34;100.00
45939;BME280;31650;48.818;9.116;2023-07-29T00:39:50;97651.47;;;16.39;100.00
45939;BME280;31650;48.818;9.116;2023-07-29T00:54:51;97643.78;;;16.36;100.00
45939;BME280;31650;48.818;9.116;2023-07-29T01:24:55;97619.72;;;16.48;100.00
45939;BME280;31650;48.818;9.116;2023-07-29T01:39:56;97613.66;;;16.46;100.00
45939;BME280;31650;48.818;9.116;2023-07-29T01:54:58;97601.09;;;16.60;100.00
45939;BME280;31650;48.818;9.116;2023-07-29T02:09:58;97583.81;;;16.60;100.00
45939;BME280;31650;48.818;9.116;2023-07-29T02:24:58;97571.97;;;16.49;100.00
45939;BME280;31650;48.818;9.116;2023-07-29T02:39:59;97585.97;;;16.53;100.00
45939;BME280;31650;48.818;9.116;2023-07-29T02:55:00;97595.56;;;16.50;100.00
45939;BME280;31650;48.818;9.116;2023-07-29T03:10:00;97567.34;;;16.55;100.00
45939;BME280;31650;48.818;9.116;2023-07-29T03:25:01;97560.38;;;16.32;100.00
45939;BME280;31650;48.818;9.116;2023-07-29T03:40:01;97563.75;;;16.54;100.00
45939;BME280;31650;48.818;9.116;2023-07-29T03:55:01;97566.00;;;16.68;100.00
45939;BME280;31650;48.818;9.116;2023-07-29T04:10:02;97558.59;;;16.68;100.00
45939;BME280;31650;48.818;9.116;2023-07-29T04:25:03;97561.63;;;16.77;100.00
45939;BME280;31650;48.818;9.116;2023-07-29T04:40:04;97584.19;;;16.84;100.00
45939;BME280;31650;48.818;9.116;2023-07-29T04:55:05;97603.69;;;16.82;100.00
45939;BME280;31650;48.818;9.116;2023-07-29T05:10:05;97578.16;;;16.87;100.00
45939;BME280;31650;48.818;9.116;2023-07-29T05:25:06;97545.22;;;17.08;100.00
45939;BME280;31650;48.818;9.116;2023-07-29T05:40:07;97579.06;;;17.29;100.00
45939;BME280;31650;48.818;9.116;2023-07-29T05:55:08;97566.72;;;17.87;100.00
45939;BME280;31650;48.818;9.116;2023-07-29T06:10:08;97554.25;;;18.91;100.00
45939;BME280;31650;48.818;9.116;2023-07-29T06:25:11;97578.03;;;19.61;100.00
45939;BME280;31650;48.818;9.116;2023-07-29T06:40:12;97575.09;;;19.47;100.00
45939;BME280;31650;48.818;9.116;2023-07-29T06:55:12;97566.34;;;18.95;100.00
45939;BME280;31650;48.818;9.116;2023-07-29T07:10:12;97580.16;;;18.85;100.00
45939;BME280;31650;48.818;9.116;2023-07-29T07:25:13;97597.34;;;18.51;100.00
45939;BME280;31650;48.818;9.116;2023-07-29T07:40:13;97621.47;;;18.85;100.00
45939;BME280;31650;48.818;9.116;2023-07-29T07:55:14;97602.22;;;19.29;100.00
45939;BME280;31650;48.818;9.116;2023-07-29T08:10:14;97564.66;;;20.31;100.00
45939;BME280;31650;48.818;9.116;2023-07-29T08:25:14;97560.63;;;20.91;100.00
45939;BME280;31650;48.818;9.116;2023-07-29T08:40:15;97554.44;;;21.37;100.00
45939;BME280;31650;48.818;9.116;2023-07-29T08:55:15;97498.06;;;23.63;100.00
45939;BME280;31650;48.818;9.116;2023-07-29T09:10:15;97483.63;;;23.74;100.00
45939;BME280;31650;48.818;9.116;2023-07-29T09:25:16;97457.47;;;25.86;84.78
45939;BME280;31650;48.818;9.116;2023-07-29T09:40:22;97447.09;;;26.63;73.44
45939;BME280;31650;48.818;9.116;2023-07-29T09:55:23;97450.75;;;25.69;73.55
45939;BME280;31650;48.818;9.116;2023-07-29T10:10:29;97437.16;;;26.74;66.65
45939;BME280;31650;48.818;9.116;2023-07-29T10:25:32;97493.94;;;22.79;99.44
45939;BME280;31650;48.818;9.116;2023-07-29T10:40:45;97502.38;;;22.60;99.26
45939;BME280;31650;48.818;9.116;2023-07-29T10:55:46;97463.22;;;24.67;75.31
45939;BME280;31650;48.818;9.116;2023-07-29T11:26:03;97463.69;;;25.57;65.48
45939;BME280;31650;48.818;9.116;2023-07-29T11:41:04;97436.53;;;26.09;64.40
45939;BME280;31650;48.818;9.116;2023-07-29T11:56:05;97444.91;;;26.69;63.87
45939;BME280;31650;48.818;9.116;2023-07-29T12:11:05;97436.56;;;26.90;60.71
45939;BME280;31650;48.818;9.116;2023-07-29T12:26:07;97416.38;;;27.93;53.20
45939;BME280;31650;48.818;9.116;2023-07-29T12:41:07;97405.63;;;27.82;51.47
45939;BME280;31650;48.818;9.116;2023-07-29T12:56:07;97415.81;;;28.24;48.11
45939;BME280;31650;48.818;9.116;2023-07-29T13:11:09;97388.47;;;27.47;49.01
45939;BME280;31650;48.818;9.116;2023-07-29T13:26:09;97398.09;;;28.20;48.23
45939;BME280;31650;48.818;9.116;2023-07-29T13:41:11;97396.81;;;27.35;49.81
45939;BME280;31650;48.818;9.116;2023-07-29T13:56:11;97405.19;;;26.72;51.48
45939;BME280;31650;48.818;9.116;2023-07-29T14:11:12;97404.25;;;28.01;49.52
45939;BME280;31650;48.818;9.116;2023-07-29T14:26:12;97417.22;;;27.60;49.94
45939;BME280;31650;48.818;9.116;2023-07-29T14:41:12;97412.19;;;26.57;53.86
45939;BME280;31650;48.818;9.116;2023-07-29T14:56:13;97396.22;;;26.66;54.15
45939;BME280;31650;48.818;9.116;2023-07-29T15:11:15;97406.97;;;25.96;56.13
45939;BME280;31650;48.818;9.116;2023-07-29T15:26:15;97396.56;;;26.86;53.99
45939;BME280;31650;48.818;9.116;2023-07-29T15:41:16;97397.09;;;26.07;56.06
45939;BME280;31650;48.818;9.116;2023-07-29T15:56:16;97376.31;;;25.58;58.00
45939;BME280;31650;48.818;9.116;2023-07-29T16:11:17;97384.31;;;25.98;58.80
45939;BME280;31650;48.818;9.116;2023-07-29T16:26:17;97360.88;;;26.58;55.61
45939;BME280;31650;48.818;9.116;2023-07-29T16:41:18;97369.75;;;26.01;53.86
45939;BME280;31650;48.818;9.116;2023-07-29T16:56:19;97368.28;;;25.95;54.07
45939;BME280;31650;48.818;9.116;2023-07-29T17:11:19;97364.63;;;24.91;57.39
45939;BME280;31650;48.818;9.116;2023-07-29T17:26:19;97393.25;;;24.92;57.88
45939;BME280;31650;48.818;9.116;2023-07-29T17:41:20;97429.31;;;23.82;66.04
45939;BME280;31650;48.818;9.116;2023-07-29T17:56:20;97449.22;;;22.71;74.98
45939;BME280;31650;48.818;9.116;2023-07-29T18:11:21;97440.59;;;22.23;84.36
45939;BME280;31650;48.818;9.116;2023-07-29T18:26:21;97474.75;;;21.72;95.41
45939;BME280;31650;48.818;9.116;2023-07-29T18:41:22;97494.69;;;21.22;100.00
45939;BME280;31650;48.818;9.116;2023-07-29T18:56:22;97507.00;;;20.73;100.00
45939;BME280;31650;48.818;9.116;2023-07-29T19:11:22;97505.75;;;20.41;100.00
45939;BME280;31650;48.818;9.116;2023-07-29T19:26:23;97539.53;;;20.09;100.00
45939;BME280;31650;48.818;9.116;2023-07-29T19:41:23;97548.91;;;19.78;100.00
45939;BME280;31650;48.818;9.116;2023-07-29T19:56:26;97562.38;;;19.51;100.00
45939;BME280;31650;48.818;9.116;2023-07-29T20:11:26;97570.97;;;19.44;100.00
45939;BME280;31650;48.818;9.116;2023-07-29T20:26:27;97547.75;;;19.55;100.00
45939;BME280;31650;48.818;9.116;2023-07-29T20:41:32;97559.03;;;19.54;100.00
45939;BME280;31650;48.818;9.116;2023-07-29T20:56:33;97573.78;;;19.39;100.00
45939;BME280;31650;48.818;9.116;2023-07-29T21:11:33;97571.50;;;19.46;100.00
45939;BME280;31650;48.818;9.116;2023-07-29T21:26:33;97577.66;;;19.33;100.00
45939;BME280;31650;48.818;9.116;2023-07-29T21:41:34;97591.47;;;19.28;100.00
45939;BME280;31650;48.818;9.116;2023-07-29T21:56:35;97623.41;;;19.34;100.00
45939;BME280;31650;48.818;9.116;2023-07-29T22:11:36;97640.91;;;19.09;100.00
45939;BME280;31650;48.818;9.116;2023-07-29T22:26:36;97653.94;;;18.88;100.00
45939;BME280;31650;48.818;9.116;2023-07-29T22:41:36;97709.94;;;18.37;100.00
45939;BME280;31650;48.818;9.116;2023-07-29T22:56:37;97756.75;;;18.22;100.00
45939;BME280;31650;48.818;9.116;2023-07-29T23:11:37;97769.63;;;17.85;100.00
45939;BME280;31650;48.818;9.116;2023-07-29T23:26:37;97717.22;;;17.29;100.00
45939;BME280;31650;48.818;9.116;2023-07-29T23:41:38;97700.66;;;16.51;100.00
45939;BME280;31650;48.818;9.116;2023-07-29T23:56:38;97687.38;;;16.37;100.00
